Clinton, Indiana
Current Conditions -  °F | °C
As of 4:35 PM on Thursday 23 Oct 2014 (Local Time) from KPRG Reporting Station
Clear Clear  
Wind Chill: 60°   Ceiling: Unl
Heat Index: 60°   Visibility: 10mi
Dew Point: 44°   Wind: 0mph
Humidity: 55%   Direction: NA
Pressure: 30.15"   Gusts: NA
Location:  39.66°N, 87.4°W
Report Text: KPRG 232035Z AUTO 00000KT 10SM CLR 15/06 A3015 RMK AO2 T01540064
Loading
Personal Weather Stations






























Interactive Weather Map
Tropical Storm Tracking
New forecast layout! Learn more

10-Day Weather Forecast

Advertisements
Track Severe Weather on mobile